sensor_id;sensor_type;location;lat;lon;timestamp;P1;durP1;ratioP1;P2;durP2;ratioP2
66751;SDS011;53663;42.676;23.238;2023-11-21T00:02:02;24.08;;;11.15;;
66751;SDS011;53663;42.676;23.238;2023-11-21T00:04:29;21.52;;;10.48;;
66751;SDS011;53663;42.676;23.238;2023-11-21T00:06:55;21.80;;;9.77;;
66751;SDS011;53663;42.676;23.238;2023-11-21T00:09:20;27.65;;;9.75;;
66751;SDS011;53663;42.676;23.238;2023-11-21T00:11:47;19.02;;;10.40;;
66751;SDS011;53663;42.676;23.238;2023-11-21T00:14:12;22.50;;;9.80;;
66751;SDS011;53663;42.676;23.238;2023-11-21T00:16:40;27.05;;;9.27;;
66751;SDS011;53663;42.676;23.238;2023-11-21T00:19:06;21.15;;;9.25;;
66751;SDS011;53663;42.676;23.238;2023-11-21T00:21:32;16.58;;;7.78;;
66751;SDS011;53663;42.676;23.238;2023-11-21T00:23:57;16.85;;;7.88;;
66751;SDS011;53663;42.676;23.238;2023-11-21T00:26:23;16.42;;;7.55;;
66751;SDS011;53663;42.676;23.238;2023-11-21T00:28:58;15.82;;;7.85;;
66751;SDS011;53663;42.676;23.238;2023-11-21T00:31:25;13.82;;;7.45;;
66751;SDS011;53663;42.676;23.238;2023-11-21T00:33:50;16.38;;;8.05;;
66751;SDS011;53663;42.676;23.238;2023-11-21T00:36:15;15.88;;;7.72;;
66751;SDS011;53663;42.676;23.238;2023-11-21T00:38:41;21.15;;;7.70;;
66751;SDS011;53663;42.676;23.238;2023-11-21T00:41:07;15.63;;;7.70;;
66751;SDS011;53663;42.676;23.238;2023-11-21T00:43:32;14.02;;;6.63;;
66751;SDS011;53663;42.676;23.238;2023-11-21T00:45:59;11.30;;;6.05;;
66751;SDS011;53663;42.676;23.238;2023-11-21T00:48:29;11.88;;;5.70;;
66751;SDS011;53663;42.676;23.238;2023-11-21T00:50:55;14.27;;;5.75;;
66751;SDS011;53663;42.676;23.238;2023-11-21T00:53:21;13.32;;;6.50;;
66751;SDS011;53663;42.676;23.238;2023-11-21T00:55:47;15.05;;;7.38;;
66751;SDS011;53663;42.676;23.238;2023-11-21T00:58:13;12.82;;;6.60;;
66751;SDS011;53663;42.676;23.238;2023-11-21T01:00:38;12.32;;;7.20;;
66751;SDS011;53663;42.676;23.238;2023-11-21T01:03:07;13.55;;;7.95;;
66751;SDS011;53663;42.676;23.238;2023-11-21T01:05:33;14.20;;;6.90;;
66751;SDS011;53663;42.676;23.238;2023-11-21T01:07:59;14.25;;;7.03;;
66751;SDS011;53663;42.676;23.238;2023-11-21T01:10:25;13.93;;;6.57;;
66751;SDS011;53663;42.676;23.238;2023-11-21T01:12:50;13.48;;;6.95;;
66751;SDS011;53663;42.676;23.238;2023-11-21T01:15:16;13.38;;;6.40;;
66751;SDS011;53663;42.676;23.238;2023-11-21T01:17:41;12.57;;;5.93;;
66751;SDS011;53663;42.676;23.238;2023-11-21T01:20:08;11.23;;;5.68;;
66751;SDS011;53663;42.676;23.238;2023-11-21T01:22:38;14.87;;;6.13;;
66751;SDS011;53663;42.676;23.238;2023-11-21T01:25:04;14.63;;;6.30;;
66751;SDS011;53663;42.676;23.238;2023-11-21T01:27:32;12.65;;;5.45;;
66751;SDS011;53663;42.676;23.238;2023-11-21T01:29:59;10.85;;;6.25;;
66751;SDS011;53663;42.676;23.238;2023-11-21T01:32:25;8.43;;;4.82;;
66751;SDS011;53663;42.676;23.238;2023-11-21T01:34:50;7.82;;;4.50;;
66751;SDS011;53663;42.676;23.238;2023-11-21T01:37:16;12.55;;;5.05;;
66751;SDS011;53663;42.676;23.238;2023-11-21T01:39:43;11.55;;;5.25;;
66751;SDS011;53663;42.676;23.238;2023-11-21T01:42:09;10.55;;;5.95;;
66751;SDS011;53663;42.676;23.238;2023-11-21T01:44:34;16.42;;;5.93;;
66751;SDS011;53663;42.676;23.238;2023-11-21T01:47:01;16.45;;;5.55;;
66751;SDS011;53663;42.676;23.238;2023-11-21T01:49:31;12.57;;;6.85;;
66751;SDS011;53663;42.676;23.238;2023-11-21T01:51:58;14.00;;;6.90;;
66751;SDS011;53663;42.676;23.238;2023-11-21T01:54:24;14.40;;;6.15;;
66751;SDS011;53663;42.676;23.238;2023-11-21T01:56:50;10.95;;;5.53;;
66751;SDS011;53663;42.676;23.238;2023-11-21T01:59:19;11.73;;;5.85;;
66751;SDS011;53663;42.676;23.238;2023-11-21T02:01:48;14.45;;;5.70;;
66751;SDS011;53663;42.676;23.238;2023-11-21T02:04:15;9.65;;;5.47;;
66751;SDS011;53663;42.676;23.238;2023-11-21T02:06:41;10.68;;;4.78;;
66751;SDS011;53663;42.676;23.238;2023-11-21T02:09:07;9.25;;;4.90;;
66751;SDS011;53663;42.676;23.238;2023-11-21T02:11:34;9.50;;;5.05;;
66751;SDS011;53663;42.676;23.238;2023-11-21T02:14:00;8.32;;;4.85;;
66751;SDS011;53663;42.676;23.238;2023-11-21T02:16:26;8.88;;;4.25;;
66751;SDS011;53663;42.676;23.238;2023-11-21T02:18:52;26.02;;;10.25;;
66751;SDS011;53663;42.676;23.238;2023-11-21T02:21:18;19.23;;;8.00;;
66751;SDS011;53663;42.676;23.238;2023-11-21T02:23:46;14.18;;;6.40;;
66751;SDS011;53663;42.676;23.238;2023-11-21T02:26:12;14.25;;;6.07;;
66751;SDS011;53663;42.676;23.238;2023-11-21T02:28:39;10.65;;;5.88;;
66751;SDS011;53663;42.676;23.238;2023-11-21T02:31:05;9.70;;;5.93;;
66751;SDS011;53663;42.676;23.238;2023-11-21T02:33:31;11.07;;;5.93;;
66751;SDS011;53663;42.676;23.238;2023-11-21T02:36:00;13.70;;;6.70;;
66751;SDS011;53663;42.676;23.238;2023-11-21T02:38:27;11.32;;;6.40;;
66751;SDS011;53663;42.676;23.238;2023-11-21T02:40:52;13.50;;;7.30;;
66751;SDS011;53663;42.676;23.238;2023-11-21T02:43:18;14.25;;;6.45;;
66751;SDS011;53663;42.676;23.238;2023-11-21T02:45:44;13.60;;;6.53;;
66751;SDS011;53663;42.676;23.238;2023-11-21T02:48:09;11.60;;;7.20;;
66751;SDS011;53663;42.676;23.238;2023-11-21T02:50:35;14.05;;;6.90;;
66751;SDS011;53663;42.676;23.238;2023-11-21T02:53:00;16.10;;;6.78;;
66751;SDS011;53663;42.676;23.238;2023-11-21T02:55:27;10.98;;;6.30;;
66751;SDS011;53663;42.676;23.238;2023-11-21T02:57:52;14.23;;;6.55;;
66751;SDS011;53663;42.676;23.238;2023-11-21T03:00:18;15.07;;;6.35;;
66751;SDS011;53663;42.676;23.238;2023-11-21T03:02:44;12.30;;;6.82;;
66751;SDS011;53663;42.676;23.238;2023-11-21T03:05:09;17.90;;;7.50;;
66751;SDS011;53663;42.676;23.238;2023-11-21T03:07:36;20.30;;;6.55;;
66751;SDS011;53663;42.676;23.238;2023-11-21T03:10:02;14.68;;;7.55;;
66751;SDS011;53663;42.676;23.238;2023-11-21T03:12:29;11.98;;;6.78;;
66751;SDS011;53663;42.676;23.238;2023-11-21T03:14:55;13.55;;;6.78;;
66751;SDS011;53663;42.676;23.238;2023-11-21T03:17:21;13.73;;;6.72;;
66751;SDS011;53663;42.676;23.238;2023-11-21T03:19:46;12.80;;;7.18;;
66751;SDS011;53663;42.676;23.238;2023-11-21T03:22:12;12.98;;;7.32;;
66751;SDS011;53663;42.676;23.238;2023-11-21T03:24:38;12.85;;;7.40;;
66751;SDS011;53663;42.676;23.238;2023-11-21T03:27:04;17.15;;;7.40;;
66751;SDS011;53663;42.676;23.238;2023-11-21T03:29:30;20.25;;;7.45;;
66751;SDS011;53663;42.676;23.238;2023-11-21T03:31:56;14.77;;;7.38;;
66751;SDS011;53663;42.676;23.238;2023-11-21T03:34:26;22.15;;;9.73;;
66751;SDS011;53663;42.676;23.238;2023-11-21T03:36:54;51.55;;;16.33;;
66751;SDS011;53663;42.676;23.238;2023-11-21T03:39:20;31.60;;;13.07;;
66751;SDS011;53663;42.676;23.238;2023-11-21T03:41:46;22.20;;;8.63;;
66751;SDS011;53663;42.676;23.238;2023-11-21T03:44:12;20.17;;;8.13;;
66751;SDS011;53663;42.676;23.238;2023-11-21T03:46:38;18.98;;;7.95;;
66751;SDS011;53663;42.676;23.238;2023-11-21T03:49:04;18.50;;;7.70;;
66751;SDS011;53663;42.676;23.238;2023-11-21T03:51:29;17.75;;;7.70;;
66751;SDS011;53663;42.676;23.238;2023-11-21T03:53:55;12.98;;;7.13;;
66751;SDS011;53663;42.676;23.238;2023-11-21T03:56:20;13.00;;;7.38;;
66751;SDS011;53663;42.676;23.238;2023-11-21T03:58:48;14.88;;;7.70;;
66751;SDS011;53663;42.676;23.238;2023-11-21T04:01:23;17.33;;;8.88;;
66751;SDS011;53663;42.676;23.238;2023-11-21T04:03:49;16.25;;;7.78;;
66751;SDS011;53663;42.676;23.238;2023-11-21T04:06:15;19.15;;;7.97;;
66751;SDS011;53663;42.676;23.238;2023-11-21T04:08:43;18.13;;;8.80;;
66751;SDS011;53663;42.676;23.238;2023-11-21T04:11:09;15.68;;;8.48;;
66751;SDS011;53663;42.676;23.238;2023-11-21T04:13:37;25.33;;;9.57;;
66751;SDS011;53663;42.676;23.238;2023-11-21T04:16:04;20.48;;;7.75;;
66751;SDS011;53663;42.676;23.238;2023-11-21T04:18:30;13.95;;;7.30;;
66751;SDS011;53663;42.676;23.238;2023-11-21T04:20:56;16.92;;;7.15;;
66751;SDS011;53663;42.676;23.238;2023-11-21T04:23:22;16.70;;;7.72;;
66751;SDS011;53663;42.676;23.238;2023-11-21T04:25:47;21.63;;;10.60;;
66751;SDS011;53663;42.676;23.238;2023-11-21T04:28:13;20.48;;;9.10;;
66751;SDS011;53663;42.676;23.238;2023-11-21T04:30:38;20.98;;;8.65;;
66751;SDS011;53663;42.676;23.238;2023-11-21T04:33:04;17.15;;;7.85;;
66751;SDS011;53663;42.676;23.238;2023-11-21T04:35:30;15.80;;;7.65;;
66751;SDS011;53663;42.676;23.238;2023-11-21T04:37:55;21.63;;;7.40;;
66751;SDS011;53663;42.676;23.238;2023-11-21T04:40:22;15.73;;;7.43;;
66751;SDS011;53663;42.676;23.238;2023-11-21T04:42:48;22.60;;;11.60;;
66751;SDS011;53663;42.676;23.238;2023-11-21T04:45:13;21.77;;;11.15;;
66751;SDS011;53663;42.676;23.238;2023-11-21T04:47:39;19.83;;;9.10;;
66751;SDS011;53663;42.676;23.238;2023-11-21T04:50:04;24.15;;;10.98;;
66751;SDS011;53663;42.676;23.238;2023-11-21T04:52:31;21.33;;;9.32;;
66751;SDS011;53663;42.676;23.238;2023-11-21T04:54:58;24.40;;;10.48;;
66751;SDS011;53663;42.676;23.238;2023-11-21T04:57:26;21.80;;;9.43;;
66751;SDS011;53663;42.676;23.238;2023-11-21T04:59:53;21.30;;;10.07;;
66751;SDS011;53663;42.676;23.238;2023-11-21T05:02:19;19.17;;;10.02;;
66751;SDS011;53663;42.676;23.238;2023-11-21T05:04:46;23.23;;;10.38;;
66751;SDS011;53663;42.676;23.238;2023-11-21T05:07:12;28.15;;;10.25;;
66751;SDS011;53663;42.676;23.238;2023-11-21T05:09:41;25.73;;;10.75;;
66751;SDS011;53663;42.676;23.238;2023-11-21T05:12:11;22.45;;;9.70;;
66751;SDS011;53663;42.676;23.238;2023-11-21T05:14:37;22.73;;;10.32;;
66751;SDS011;53663;42.676;23.238;2023-11-21T05:17:03;21.27;;;8.32;;
66751;SDS011;53663;42.676;23.238;2023-11-21T05:19:33;19.42;;;8.40;;
66751;SDS011;53663;42.676;23.238;2023-11-21T05:22:00;26.45;;;8.00;;
66751;SDS011;53663;42.676;23.238;2023-11-21T05:24:25;18.25;;;8.60;;
66751;SDS011;53663;42.676;23.238;2023-11-21T05:26:51;24.42;;;7.95;;
66751;SDS011;53663;42.676;23.238;2023-11-21T05:29:18;24.80;;;8.95;;
66751;SDS011;53663;42.676;23.238;2023-11-21T05:31:43;15.70;;;8.55;;
66751;SDS011;53663;42.676;23.238;2023-11-21T05:34:09;18.05;;;10.00;;
66751;SDS011;53663;42.676;23.238;2023-11-21T05:36:34;26.13;;;10.55;;
66751;SDS011;53663;42.676;23.238;2023-11-21T05:39:00;24.58;;;10.70;;
66751;SDS011;53663;42.676;23.238;2023-11-21T05:41:25;22.55;;;11.00;;
66751;SDS011;53663;42.676;23.238;2023-11-21T05:43:51;20.33;;;11.38;;
66751;SDS011;53663;42.676;23.238;2023-11-21T05:46:16;19.77;;;10.35;;
66751;SDS011;53663;42.676;23.238;2023-11-21T05:48:43;32.10;;;11.90;;
66751;SDS011;53663;42.676;23.238;2023-11-21T05:51:08;29.08;;;11.15;;
66751;SDS011;53663;42.676;23.238;2023-11-21T05:53:34;30.38;;;12.50;;
66751;SDS011;53663;42.676;23.238;2023-11-21T05:55:59;34.83;;;10.40;;
66751;SDS011;53663;42.676;23.238;2023-11-21T05:58:25;30.48;;;9.30;;
66751;SDS011;53663;42.676;23.238;2023-11-21T06:00:51;26.30;;;10.43;;
66751;SDS011;53663;42.676;23.238;2023-11-21T06:03:16;26.17;;;10.68;;
66751;SDS011;53663;42.676;23.238;2023-11-21T06:05:42;35.78;;;11.32;;
66751;SDS011;53663;42.676;23.238;2023-11-21T06:08:08;24.58;;;11.48;;
66751;SDS011;53663;42.676;23.238;2023-11-21T06:10:34;26.90;;;13.07;;
66751;SDS011;53663;42.676;23.238;2023-11-21T06:12:59;39.83;;;16.98;;
66751;SDS011;53663;42.676;23.238;2023-11-21T06:15:25;55.50;;;18.20;;
66751;SDS011;53663;42.676;23.238;2023-11-21T06:17:50;41.38;;;15.13;;
66751;SDS011;53663;42.676;23.238;2023-11-21T06:20:19;36.85;;;16.35;;
66751;SDS011;53663;42.676;23.238;2023-11-21T06:22:46;29.88;;;13.00;;
66751;SDS011;53663;42.676;23.238;2023-11-21T06:25:13;24.45;;;11.93;;
66751;SDS011;53663;42.676;23.238;2023-11-21T06:27:42;28.13;;;12.73;;
66751;SDS011;53663;42.676;23.238;2023-11-21T06:30:13;22.60;;;11.68;;
66751;SDS011;53663;42.676;23.238;2023-11-21T06:32:40;25.48;;;11.82;;
66751;SDS011;53663;42.676;23.238;2023-11-21T06:37:36;30.23;;;11.57;;
66751;SDS011;53663;42.676;23.238;2023-11-21T06:40:02;28.00;;;13.40;;
66751;SDS011;53663;42.676;23.238;2023-11-21T06:42:31;28.90;;;17.17;;
66751;SDS011;53663;42.676;23.238;2023-11-21T06:44:58;39.40;;;19.98;;
66751;SDS011;53663;42.676;23.238;2023-11-21T06:47:24;23.40;;;13.35;;
66751;SDS011;53663;42.676;23.238;2023-11-21T06:49:51;28.25;;;12.60;;
66751;SDS011;53663;42.676;23.238;2023-11-21T06:52:17;26.80;;;12.55;;
66751;SDS011;53663;42.676;23.238;2023-11-21T06:54:44;31.38;;;13.35;;
66751;SDS011;53663;42.676;23.238;2023-11-21T06:57:10;29.75;;;14.00;;
66751;SDS011;53663;42.676;23.238;2023-11-21T06:59:36;28.35;;;14.27;;
66751;SDS011;53663;42.676;23.238;2023-11-21T07:02:02;25.25;;;13.60;;
66751;SDS011;53663;42.676;23.238;2023-11-21T07:04:29;37.92;;;14.02;;
66751;SDS011;53663;42.676;23.238;2023-11-21T07:06:55;33.15;;;13.68;;
66751;SDS011;53663;42.676;23.238;2023-11-21T07:09:21;36.78;;;12.80;;
66751;SDS011;53663;42.676;23.238;2023-11-21T07:11:50;24.65;;;12.50;;
66751;SDS011;53663;42.676;23.238;2023-11-21T07:14:16;25.17;;;12.43;;
66751;SDS011;53663;42.676;23.238;2023-11-21T07:16:42;32.25;;;11.55;;
66751;SDS011;53663;42.676;23.238;2023-11-21T07:19:08;25.90;;;11.82;;
66751;SDS011;53663;42.676;23.238;2023-11-21T07:21:34;25.58;;;12.10;;
66751;SDS011;53663;42.676;23.238;2023-11-21T07:24:00;31.90;;;12.88;;
66751;SDS011;53663;42.676;23.238;2023-11-21T07:26:26;41.83;;;14.52;;
66751;SDS011;53663;42.676;23.238;2023-11-21T07:28:52;26.30;;;13.48;;
66751;SDS011;53663;42.676;23.238;2023-11-21T07:31:18;30.15;;;14.55;;
66751;SDS011;53663;42.676;23.238;2023-11-21T07:33:44;25.63;;;13.65;;
66751;SDS011;53663;42.676;23.238;2023-11-21T07:36:12;27.10;;;14.32;;
66751;SDS011;53663;42.676;23.238;2023-11-21T07:38:38;30.98;;;16.92;;
66751;SDS011;53663;42.676;23.238;2023-11-21T07:41:04;37.70;;;17.30;;
66751;SDS011;53663;42.676;23.238;2023-11-21T07:43:30;37.03;;;16.15;;
66751;SDS011;53663;42.676;23.238;2023-11-21T07:46:00;40.27;;;17.40;;
66751;SDS011;53663;42.676;23.238;2023-11-21T07:48:28;31.85;;;15.65;;
66751;SDS011;53663;42.676;23.238;2023-11-21T07:50:57;48.47;;;20.38;;
66751;SDS011;53663;42.676;23.238;2023-11-21T07:53:26;42.65;;;22.27;;
66751;SDS011;53663;42.676;23.238;2023-11-21T07:55:54;39.28;;;17.85;;
66751;SDS011;53663;42.676;23.238;2023-11-21T07:58:20;40.50;;;18.45;;
66751;SDS011;53663;42.676;23.238;2023-11-21T08:00:45;44.55;;;17.92;;
66751;SDS011;53663;42.676;23.238;2023-11-21T08:03:13;39.95;;;19.13;;
66751;SDS011;53663;42.676;23.238;2023-11-21T08:05:39;49.65;;;21.38;;
66751;SDS011;53663;42.676;23.238;2023-11-21T08:08:05;41.50;;;20.90;;
66751;SDS011;53663;42.676;23.238;2023-11-21T08:10:30;47.13;;;20.75;;
66751;SDS011;53663;42.676;23.238;2023-11-21T08:12:56;38.58;;;16.98;;
66751;SDS011;53663;42.676;23.238;2023-11-21T08:15:22;41.25;;;17.17;;
66751;SDS011;53663;42.676;23.238;2023-11-21T08:17:47;41.40;;;17.70;;
66751;SDS011;53663;42.676;23.238;2023-11-21T08:20:13;39.08;;;19.23;;
66751;SDS011;53663;42.676;23.238;2023-11-21T08:22:41;34.38;;;17.92;;
66751;SDS011;53663;42.676;23.238;2023-11-21T08:25:07;45.03;;;17.88;;
66751;SDS011;53663;42.676;23.238;2023-11-21T08:27:33;43.67;;;18.05;;
66751;SDS011;53663;42.676;23.238;2023-11-21T08:30:00;41.80;;;19.98;;
66751;SDS011;53663;42.676;23.238;2023-11-21T08:32:26;45.55;;;20.23;;
66751;SDS011;53663;42.676;23.238;2023-11-21T08:34:51;42.08;;;19.33;;
66751;SDS011;53663;42.676;23.238;2023-11-21T08:37:17;37.65;;;17.33;;
66751;SDS011;53663;42.676;23.238;2023-11-21T08:39:43;37.92;;;17.60;;
66751;SDS011;53663;42.676;23.238;2023-11-21T08:42:09;30.98;;;17.58;;
66751;SDS011;53663;42.676;23.238;2023-11-21T08:44:35;38.67;;;18.33;;
66751;SDS011;53663;42.676;23.238;2023-11-21T08:47:01;38.13;;;19.27;;
66751;SDS011;53663;42.676;23.238;2023-11-21T08:49:27;106.30;;;48.83;;
66751;SDS011;53663;42.676;23.238;2023-11-21T08:51:54;36.13;;;19.77;;
66751;SDS011;53663;42.676;23.238;2023-11-21T08:54:24;52.55;;;22.52;;
66751;SDS011;53663;42.676;23.238;2023-11-21T08:56:51;44.42;;;21.08;;
66751;SDS011;53663;42.676;23.238;2023-11-21T08:59:17;64.72;;;31.15;;
66751;SDS011;53663;42.676;23.238;2023-11-21T09:01:43;35.15;;;14.27;;
66751;SDS011;53663;42.676;23.238;2023-11-21T09:04:08;28.52;;;15.30;;
66751;SDS011;53663;42.676;23.238;2023-11-21T09:06:34;35.75;;;16.48;;
66751;SDS011;53663;42.676;23.238;2023-11-21T09:09:00;36.72;;;15.98;;
66751;SDS011;53663;42.676;23.238;2023-11-21T09:11:25;50.95;;;21.02;;
66751;SDS011;53663;42.676;23.238;2023-11-21T09:13:56;34.58;;;16.70;;
66751;SDS011;53663;42.676;23.238;2023-11-21T09:16:23;30.33;;;14.95;;
66751;SDS011;53663;42.676;23.238;2023-11-21T09:18:48;32.78;;;16.70;;
66751;SDS011;53663;42.676;23.238;2023-11-21T09:21:14;32.70;;;15.20;;
66751;SDS011;53663;42.676;23.238;2023-11-21T09:23:39;34.50;;;15.57;;
66751;SDS011;53663;42.676;23.238;2023-11-21T09:26:04;37.28;;;16.10;;
66751;SDS011;53663;42.676;23.238;2023-11-21T09:28:30;30.90;;;14.95;;
66751;SDS011;53663;42.676;23.238;2023-11-21T09:30:56;32.13;;;14.68;;
66751;SDS011;53663;42.676;23.238;2023-11-21T09:33:21;31.17;;;15.95;;
66751;SDS011;53663;42.676;23.238;2023-11-21T09:35:50;36.67;;;17.13;;
66751;SDS011;53663;42.676;23.238;2023-11-21T09:38:16;50.83;;;25.13;;
66751;SDS011;53663;42.676;23.238;2023-11-21T09:40:41;70.93;;;30.35;;
66751;SDS011;53663;42.676;23.238;2023-11-21T09:43:25;34.33;;;17.40;;
66751;SDS011;53663;42.676;23.238;2023-11-21T09:45:59;28.52;;;14.70;;
66751;SDS011;53663;42.676;23.238;2023-11-21T09:48:27;25.00;;;13.82;;
66751;SDS011;53663;42.676;23.238;2023-11-21T09:50:54;31.27;;;15.73;;
66751;SDS011;53663;42.676;23.238;2023-11-21T09:53:22;33.05;;;16.83;;
66751;SDS011;53663;42.676;23.238;2023-11-21T09:55:52;40.17;;;15.95;;
66751;SDS011;53663;42.676;23.238;2023-11-21T09:58:19;42.15;;;15.32;;
66751;SDS011;53663;42.676;23.238;2023-11-21T10:00:46;29.77;;;15.32;;
66751;SDS011;53663;42.676;23.238;2023-11-21T10:03:13;29.58;;;14.02;;
66751;SDS011;53663;42.676;23.238;2023-11-21T10:05:40;29.45;;;14.73;;
66751;SDS011;53663;42.676;23.238;2023-11-21T10:08:08;28.10;;;15.00;;
66751;SDS011;53663;42.676;23.238;2023-11-21T10:10:35;37.63;;;15.93;;
66751;SDS011;53663;42.676;23.238;2023-11-21T10:13:05;30.80;;;13.85;;
66751;SDS011;53663;42.676;23.238;2023-11-21T10:15:36;25.13;;;14.40;;
66751;SDS011;53663;42.676;23.238;2023-11-21T10:18:05;26.88;;;14.00;;
66751;SDS011;53663;42.676;23.238;2023-11-21T10:20:32;23.67;;;13.07;;
66751;SDS011;53663;42.676;23.238;2023-11-21T10:23:03;31.42;;;14.63;;
66751;SDS011;53663;42.676;23.238;2023-11-21T10:25:30;34.22;;;14.20;;
66751;SDS011;53663;42.676;23.238;2023-11-21T10:27:59;29.35;;;14.02;;
66751;SDS011;53663;42.676;23.238;2023-11-21T10:30:36;31.70;;;13.32;;
66751;SDS011;53663;42.676;23.238;2023-11-21T10:33:03;23.00;;;12.73;;
66751;SDS011;53663;42.676;23.238;2023-11-21T10:38:26;33.22;;;14.27;;
66751;SDS011;53663;42.676;23.238;2023-11-21T10:40:53;31.88;;;14.60;;
66751;SDS011;53663;42.676;23.238;2023-11-21T10:43:20;35.80;;;15.50;;
66751;SDS011;53663;42.676;23.238;2023-11-21T10:45:49;30.77;;;14.55;;
66751;SDS011;53663;42.676;23.238;2023-11-21T10:48:15;27.38;;;13.05;;
66751;SDS011;53663;42.676;23.238;2023-11-21T10:50:41;29.45;;;13.65;;
66751;SDS011;53663;42.676;23.238;2023-11-21T10:53:11;27.33;;;14.10;;
66751;SDS011;53663;42.676;23.238;2023-11-21T10:55:37;30.92;;;14.57;;
66751;SDS011;53663;42.676;23.238;2023-11-21T10:58:04;29.17;;;14.55;;
66751;SDS011;53663;42.676;23.238;2023-11-21T11:00:30;33.15;;;14.65;;
66751;SDS011;53663;42.676;23.238;2023-11-21T11:02:58;35.92;;;14.85;;
66751;SDS011;53663;42.676;23.238;2023-11-21T11:05:25;29.33;;;14.77;;
66751;SDS011;53663;42.676;23.238;2023-11-21T11:08:08;32.13;;;16.00;;
66751;SDS011;53663;42.676;23.238;2023-11-21T11:13:00;49.60;;;16.10;;
66751;SDS011;53663;42.676;23.238;2023-11-21T11:15:26;39.33;;;16.77;;
66751;SDS011;53663;42.676;23.238;2023-11-21T11:17:53;40.28;;;16.77;;
66751;SDS011;53663;42.676;23.238;2023-11-21T11:20:23;32.75;;;17.35;;
66751;SDS011;53663;42.676;23.238;2023-11-21T11:28:26;38.90;;;19.55;;
66751;SDS011;53663;42.676;23.238;2023-11-21T11:31:04;39.85;;;18.02;;
66751;SDS011;53663;42.676;23.238;2023-11-21T11:33:48;38.70;;;18.00;;
66751;SDS011;53663;42.676;23.238;2023-11-21T11:36:44;36.03;;;18.45;;
66751;SDS011;53663;42.676;23.238;2023-11-21T11:39:27;43.28;;;16.67;;
66751;SDS011;53663;42.676;23.238;2023-11-21T11:42:01;38.40;;;16.80;;
66751;SDS011;53663;42.676;23.238;2023-11-21T11:49:56;35.28;;;16.35;;
66751;SDS011;53663;42.676;23.238;2023-11-21T11:52:39;28.15;;;15.77;;
66751;SDS011;53663;42.676;23.238;2023-11-21T11:55:12;32.13;;;15.75;;
66751;SDS011;53663;42.676;23.238;2023-11-21T11:57:48;33.97;;;16.58;;
66751;SDS011;53663;42.676;23.238;2023-11-21T12:00:17;32.90;;;18.58;;
66751;SDS011;53663;42.676;23.238;2023-11-21T12:02:56;33.28;;;18.83;;
66751;SDS011;53663;42.676;23.238;2023-11-21T12:05:24;35.10;;;19.13;;
66751;SDS011;53663;42.676;23.238;2023-11-21T12:10:26;33.00;;;16.50;;
66751;SDS011;53663;42.676;23.238;2023-11-21T12:12:57;35.13;;;16.98;;
66751;SDS011;53663;42.676;23.238;2023-11-21T12:15:24;37.85;;;16.88;;
66751;SDS011;53663;42.676;23.238;2023-11-21T12:17:51;41.05;;;17.35;;
66751;SDS011;53663;42.676;23.238;2023-11-21T12:20:21;29.88;;;18.05;;
66751;SDS011;53663;42.676;23.238;2023-11-21T12:25:14;33.75;;;18.05;;
66751;SDS011;53663;42.676;23.238;2023-11-21T12:27:45;29.60;;;16.58;;
66751;SDS011;53663;42.676;23.238;2023-11-21T12:30:12;35.88;;;17.98;;
66751;SDS011;53663;42.676;23.238;2023-11-21T12:32:47;31.55;;;17.75;;
66751;SDS011;53663;42.676;23.238;2023-11-21T12:35:15;32.17;;;14.63;;
66751;SDS011;53663;42.676;23.238;2023-11-21T12:37:44;30.60;;;15.57;;
66751;SDS011;53663;42.676;23.238;2023-11-21T12:40:12;24.33;;;15.07;;
66751;SDS011;53663;42.676;23.238;2023-11-21T12:42:47;25.73;;;13.55;;
66751;SDS011;53663;42.676;23.238;2023-11-21T12:47:49;24.98;;;14.32;;
66751;SDS011;53663;42.676;23.238;2023-11-21T12:50:22;33.92;;;15.63;;
66751;SDS011;53663;42.676;23.238;2023-11-21T12:52:51;25.92;;;16.05;;
66751;SDS011;53663;42.676;23.238;2023-11-21T12:55:21;22.17;;;13.18;;
66751;SDS011;53663;42.676;23.238;2023-11-21T12:57:54;20.83;;;11.07;;
66751;SDS011;53663;42.676;23.238;2023-11-21T13:00:33;27.77;;;12.82;;
66751;SDS011;53663;42.676;23.238;2023-11-21T13:03:03;29.65;;;15.35;;
66751;SDS011;53663;42.676;23.238;2023-11-21T13:05:30;27.58;;;13.00;;
66751;SDS011;53663;42.676;23.238;2023-11-21T13:08:00;24.70;;;13.77;;
66751;SDS011;53663;42.676;23.238;2023-11-21T13:10:29;30.50;;;13.43;;
66751;SDS011;53663;42.676;23.238;2023-11-21T13:12:57;47.92;;;26.48;;
66751;SDS011;53663;42.676;23.238;2023-11-21T13:15:24;24.10;;;12.57;;
66751;SDS011;53663;42.676;23.238;2023-11-21T13:17:50;25.77;;;12.13;;
66751;SDS011;53663;42.676;23.238;2023-11-21T13:20:18;60.55;;;31.27;;
66751;SDS011;53663;42.676;23.238;2023-11-21T13:22:55;21.08;;;10.60;;
66751;SDS011;53663;42.676;23.238;2023-11-21T13:25:24;29.67;;;11.70;;
66751;SDS011;53663;42.676;23.238;2023-11-21T13:27:54;26.55;;;12.23;;
66751;SDS011;53663;42.676;23.238;2023-11-21T13:30:20;23.80;;;12.45;;
66751;SDS011;53663;42.676;23.238;2023-11-21T13:32:52;26.23;;;12.38;;
66751;SDS011;53663;42.676;23.238;2023-11-21T13:35:22;29.40;;;14.52;;
66751;SDS011;53663;42.676;23.238;2023-11-21T13:37:56;25.00;;;13.77;;
66751;SDS011;53663;42.676;23.238;2023-11-21T13:40:27;31.00;;;15.65;;
66751;SDS011;53663;42.676;23.238;2023-11-21T13:42:53;28.90;;;15.35;;
66751;SDS011;53663;42.676;23.238;2023-11-21T13:45:23;32.25;;;16.08;;
66751;SDS011;53663;42.676;23.238;2023-11-21T13:47:50;33.22;;;15.63;;
66751;SDS011;53663;42.676;23.238;2023-11-21T13:50:20;34.60;;;18.35;;
66751;SDS011;53663;42.676;23.238;2023-11-21T13:52:49;32.28;;;17.50;;
66751;SDS011;53663;42.676;23.238;2023-11-21T13:55:17;35.88;;;17.98;;
66751;SDS011;53663;42.676;23.238;2023-11-21T13:57:43;37.28;;;17.35;;
66751;SDS011;53663;42.676;23.238;2023-11-21T14:00:15;30.92;;;17.33;;
66751;SDS011;53663;42.676;23.238;2023-11-21T14:03:00;44.25;;;18.48;;
66751;SDS011;53663;42.676;23.238;2023-11-21T14:05:29;37.03;;;18.95;;
66751;SDS011;53663;42.676;23.238;2023-11-21T14:07:56;40.80;;;18.48;;
66751;SDS011;53663;42.676;23.238;2023-11-21T14:10:28;40.45;;;18.95;;
66751;SDS011;53663;42.676;23.238;2023-11-21T14:13:02;39.08;;;19.23;;
66751;SDS011;53663;42.676;23.238;2023-11-21T14:15:29;35.22;;;20.13;;
66751;SDS011;53663;42.676;23.238;2023-11-21T14:17:56;47.08;;;20.52;;
66751;SDS011;53663;42.676;23.238;2023-11-21T14:20:22;41.08;;;19.45;;
66751;SDS011;53663;42.676;23.238;2023-11-21T14:22:47;37.00;;;19.70;;
66751;SDS011;53663;42.676;23.238;2023-11-21T14:25:13;38.20;;;19.27;;
66751;SDS011;53663;42.676;23.238;2023-11-21T14:27:39;43.25;;;20.85;;
66751;SDS011;53663;42.676;23.238;2023-11-21T14:30:05;37.28;;;19.63;;
66751;SDS011;53663;42.676;23.238;2023-11-21T14:32:31;40.53;;;19.85;;
66751;SDS011;53663;42.676;23.238;2023-11-21T14:34:57;40.65;;;20.42;;
66751;SDS011;53663;42.676;23.238;2023-11-21T14:37:22;37.40;;;20.45;;
66751;SDS011;53663;42.676;23.238;2023-11-21T14:39:49;38.85;;;19.33;;
66751;SDS011;53663;42.676;23.238;2023-11-21T14:42:15;49.33;;;20.10;;